createdAt,value
2018-03-31T00:00:41.049Z,8.30
2018-03-31T00:03:08.014Z,8.20
2018-03-31T00:05:35.759Z,8.50
2018-03-31T00:08:02.719Z,8.50
2018-03-31T00:10:29.680Z,8.40
2018-03-31T00:12:57.413Z,8.50
2018-03-31T00:15:24.385Z,8.50
2018-03-31T00:17:51.336Z,8.50
2018-03-31T00:20:18.314Z,8.50
2018-03-31T00:22:46.043Z,8.50
2018-03-31T00:25:12.986Z,8.40
2018-03-31T00:27:39.938Z,8.50
2018-03-31T00:30:06.887Z,8.30
2018-03-31T00:32:33.843Z,8.20
2018-03-31T00:35:00.796Z,8.20
2018-03-31T00:37:27.754Z,8.10
2018-03-31T00:39:54.722Z,8.10
2018-03-31T00:42:21.675Z,8.10
2018-03-31T00:44:48.640Z,8.10
2018-03-31T00:47:16.358Z,8.00
2018-03-31T00:49:43.324Z,8.00
2018-03-31T00:52:10.280Z,8.00
2018-03-31T00:54:37.240Z,7.80
2018-03-31T00:57:04.166Z,8.10
2018-03-31T00:59:31.174Z,8.00
2018-03-31T01:01:58.127Z,8.10
2018-03-31T01:04:25.090Z,8.10
2018-03-31T01:06:52.057Z,8.00
2018-03-31T01:09:19.028Z,8.00
2018-03-31T01:11:45.982Z,8.00
2018-03-31T01:14:12.944Z,8.10
2018-03-31T01:16:39.915Z,8.00
2018-03-31T01:19:06.878Z,8.10
2018-03-31T01:21:34.598Z,7.90
2018-03-31T01:24:01.547Z,7.90
2018-03-31T01:26:28.511Z,7.80
2018-03-31T01:28:55.476Z,7.80
2018-03-31T01:31:22.431Z,7.70
2018-03-31T01:33:49.417Z,7.80
2018-03-31T01:36:17.107Z,7.60
2018-03-31T01:38:44.049Z,7.60
2018-03-31T01:41:11.021Z,7.60
2018-03-31T01:43:37.983Z,7.60
2018-03-31T01:46:04.943Z,7.70
2018-03-31T01:48:31.938Z,7.60
2018-03-31T01:50:58.888Z,7.70
2018-03-31T01:53:25.849Z,7.60
2018-03-31T01:55:52.817Z,7.70
2018-03-31T01:58:19.775Z,7.80
2018-03-31T02:00:46.750Z,7.60
2018-03-31T02:03:13.702Z,7.60
2018-03-31T02:05:40.656Z,7.50
2018-03-31T02:08:07.618Z,7.40
2018-03-31T02:10:34.570Z,7.40
2018-03-31T02:13:01.532Z,7.30
2018-03-31T02:15:28.506Z,7.30
2018-03-31T02:17:55.461Z,7.50
2018-03-31T02:20:22.416Z,7.40
2018-03-31T02:22:49.370Z,7.40
2018-03-31T02:25:16.348Z,7.30
2018-03-31T02:27:43.309Z,7.30
2018-03-31T02:30:10.277Z,7.30
2018-03-31T02:32:37.231Z,7.40
2018-03-31T02:35:04.199Z,7.40
2018-03-31T02:37:31.936Z,7.00
2018-03-31T02:39:58.893Z,7.10
2018-03-31T02:42:25.842Z,7.10
2018-03-31T02:44:52.813Z,6.90
2018-03-31T02:47:20.535Z,6.90
2018-03-31T02:49:47.507Z,6.90
2018-03-31T02:52:14.476Z,7.00
2018-03-31T02:54:41.438Z,6.90
2018-03-31T02:57:09.154Z,7.10
2018-03-31T02:59:36.138Z,7.10
2018-03-31T03:02:03.098Z,7.10
2018-03-31T03:04:30.052Z,6.90
2018-03-31T03:06:57.047Z,6.70
2018-03-31T03:09:24.007Z,6.50
2018-03-31T03:11:50.985Z,6.70
2018-03-31T03:14:17.956Z,6.50
2018-03-31T03:16:44.909Z,6.40
2018-03-31T03:19:11.845Z,6.20
2018-03-31T03:21:38.815Z,6.10
2018-03-31T03:24:05.775Z,6.10
2018-03-31T03:26:33.536Z,6.20
2018-03-31T03:29:00.513Z,6.20
2018-03-31T03:31:28.268Z,6.10
2018-03-31T03:33:55.998Z,6.20
2018-03-31T03:36:22.942Z,6.10
2018-03-31T03:38:49.902Z,6.00
2018-03-31T03:41:16.867Z,5.90
2018-03-31T03:43:43.827Z,5.80
2018-03-31T03:46:10.830Z,6.00
2018-03-31T03:48:37.787Z,6.00
2018-03-31T03:51:04.773Z,5.90
2018-03-31T03:53:31.726Z,5.90
2018-03-31T03:55:58.679Z,5.90
2018-03-31T03:58:25.670Z,5.80
2018-03-31T04:00:52.640Z,5.80
2018-03-31T04:03:19.609Z,5.70
2018-03-31T04:05:46.571Z,5.70
2018-03-31T04:08:13.529Z,5.80
2018-03-31T04:10:41.168Z,5.70
2018-03-31T04:13:08.152Z,5.70
2018-03-31T04:15:35.106Z,5.80
2018-03-31T04:18:02.057Z,5.60
2018-03-31T04:20:29.028Z,5.60
2018-03-31T04:22:56.752Z,5.70
2018-03-31T04:25:23.719Z,5.60
2018-03-31T04:27:50.674Z,5.80
2018-03-31T04:30:17.671Z,5.90
2018-03-31T04:32:44.643Z,5.90
2018-03-31T04:35:11.607Z,5.90
2018-03-31T04:37:38.585Z,5.90
2018-03-31T04:40:05.557Z,6.10
2018-03-31T04:42:33.271Z,6.30
2018-03-31T04:45:00.260Z,6.20
2018-03-31T04:47:27.235Z,6.10
2018-03-31T04:49:54.962Z,5.80
2018-03-31T04:52:21.927Z,5.80
2018-03-31T04:54:48.879Z,5.90
2018-03-31T04:57:15.844Z,6.00
2018-03-31T04:59:42.789Z,5.90
2018-03-31T05:02:09.820Z,5.70
2018-03-31T05:04:36.787Z,5.70
2018-03-31T05:07:03.746Z,5.90
2018-03-31T05:09:30.711Z,6.00
2018-03-31T05:11:58.468Z,5.90
2018-03-31T05:14:25.416Z,5.80
2018-03-31T05:16:52.411Z,5.80
2018-03-31T05:19:19.377Z,5.90
2018-03-31T05:21:46.360Z,5.90
2018-03-31T05:24:13.319Z,6.00
2018-03-31T05:26:40.283Z,6.10
2018-03-31T05:29:07.233Z,5.80
2018-03-31T05:31:34.960Z,5.40
2018-03-31T05:34:01.954Z,5.50
2018-03-31T05:36:28.923Z,5.60
2018-03-31T05:38:56.637Z,5.30
2018-03-31T05:41:23.598Z,5.30
2018-03-31T05:43:50.548Z,5.40
2018-03-31T05:46:17.526Z,5.30
2018-03-31T05:48:44.502Z,5.30
2018-03-31T05:51:11.501Z,5.50
2018-03-31T05:53:38.496Z,5.60
2018-03-31T05:56:06.200Z,5.70
2018-03-31T05:58:33.174Z,5.70
2018-03-31T06:01:00.153Z,5.60
2018-03-31T06:03:27.108Z,5.50
2018-03-31T06:05:54.837Z,5.40
2018-03-31T06:08:21.791Z,5.40
2018-03-31T06:10:48.758Z,5.30
2018-03-31T06:13:15.720Z,5.20
2018-03-31T06:15:42.673Z,5.20
2018-03-31T06:18:09.635Z,5.30
2018-03-31T06:20:37.361Z,5.30
2018-03-31T06:23:04.323Z,5.30
2018-03-31T06:25:31.272Z,5.20
2018-03-31T06:27:58.223Z,5.20
2018-03-31T06:30:25.184Z,5.20
2018-03-31T06:32:52.155Z,5.20
2018-03-31T06:35:19.860Z,5.50
2018-03-31T06:37:46.829Z,5.50
2018-03-31T06:40:13.788Z,5.70
2018-03-31T06:42:40.809Z,5.60
2018-03-31T06:45:07.765Z,5.60
2018-03-31T06:47:34.728Z,5.60
2018-03-31T06:50:01.718Z,5.70
2018-03-31T06:52:28.675Z,5.70
2018-03-31T06:54:55.638Z,5.70
2018-03-31T06:57:23.371Z,5.40
2018-03-31T06:59:50.354Z,5.40
2018-03-31T07:02:17.310Z,5.50
2018-03-31T07:04:44.263Z,5.40
2018-03-31T07:07:11.987Z,5.50
2018-03-31T07:09:38.948Z,5.50
2018-03-31T07:12:05.942Z,5.50
2018-03-31T07:14:32.942Z,5.50
2018-03-31T07:16:59.910Z,5.60
2018-03-31T07:19:26.883Z,5.60
2018-03-31T07:21:53.834Z,5.60
2018-03-31T07:24:21.570Z,5.50
2018-03-31T07:26:48.535Z,5.50
2018-03-31T07:29:15.508Z,5.60
2018-03-31T07:31:42.472Z,5.60
2018-03-31T07:34:10.201Z,5.60
2018-03-31T07:36:37.163Z,5.60
2018-03-31T07:39:04.126Z,5.60
2018-03-31T07:41:31.852Z,5.70
2018-03-31T07:43:58.850Z,5.60
2018-03-31T07:46:27.211Z,5.80
2018-03-31T07:48:54.179Z,5.80
2018-03-31T07:51:21.120Z,5.80
2018-03-31T07:53:48.113Z,5.90
2018-03-31T07:56:15.059Z,5.90
2018-03-31T07:58:42.032Z,6.00
2018-03-31T08:01:09.005Z,6.00
2018-03-31T08:03:35.988Z,6.00
2018-03-31T08:06:02.977Z,6.10
2018-03-31T08:08:29.946Z,6.20
2018-03-31T08:10:56.894Z,6.20
2018-03-31T08:13:23.854Z,6.20
2018-03-31T08:15:50.832Z,6.20
2018-03-31T08:18:17.795Z,6.20
2018-03-31T08:20:44.765Z,6.30
2018-03-31T08:23:12.485Z,6.40
2018-03-31T08:25:39.460Z,6.40
2018-03-31T08:28:06.417Z,6.50
2018-03-31T08:30:34.188Z,6.50
2018-03-31T08:33:01.134Z,6.40
2018-03-31T08:35:28.096Z,6.50
2018-03-31T08:37:55.847Z,6.60
2018-03-31T08:40:22.803Z,6.60
2018-03-31T08:42:49.784Z,6.70
2018-03-31T08:45:17.527Z,6.80
2018-03-31T08:47:44.494Z,6.80
2018-03-31T08:50:12.215Z,7.00
2018-03-31T08:52:39.166Z,7.00
2018-03-31T08:55:06.130Z,7.10
2018-03-31T08:57:33.162Z,7.10
2018-03-31T09:00:00.084Z,7.30
2018-03-31T09:02:27.807Z,7.30
2018-03-31T09:04:54.805Z,7.30
2018-03-31T09:07:22.529Z,7.70
2018-03-31T09:09:49.490Z,7.80
2018-03-31T09:12:16.454Z,7.90
2018-03-31T09:14:43.455Z,8.00
2018-03-31T09:17:10.408Z,8.00
2018-03-31T09:19:37.385Z,8.30
2018-03-31T09:22:04.335Z,8.50
2018-03-31T09:24:31.294Z,8.80
2018-03-31T09:26:58.256Z,9.20
2018-03-31T09:29:25.227Z,9.50
2018-03-31T09:31:52.961Z,9.90
2018-03-31T09:34:19.936Z,9.90
2018-03-31T09:36:46.880Z,9.90
2018-03-31T09:39:13.843Z,9.90
2018-03-31T09:41:41.570Z,10.60
2018-03-31T09:44:08.538Z,10.50
2018-03-31T09:46:35.608Z,10.70
2018-03-31T09:49:02.520Z,10.80
2018-03-31T09:51:29.486Z,10.90
2018-03-31T09:53:56.751Z,11.00
2018-03-31T09:56:23.711Z,11.20
2018-03-31T09:58:50.688Z,10.90
2018-03-31T10:01:18.417Z,10.70
2018-03-31T10:03:45.384Z,10.70
2018-03-31T10:06:12.382Z,10.40
2018-03-31T10:08:39.389Z,10.20
2018-03-31T10:11:06.358Z,10.20
2018-03-31T10:13:34.077Z,10.20
2018-03-31T10:16:01.047Z,10.20
2018-03-31T10:18:28.036Z,10.00
2018-03-31T10:20:55.774Z,10.00
2018-03-31T10:23:22.758Z,10.00
2018-03-31T10:25:50.489Z,10.00
2018-03-31T10:28:17.447Z,10.00
2018-03-31T10:30:44.408Z,9.90
2018-03-31T10:33:11.380Z,9.60
2018-03-31T10:35:39.090Z,9.90
2018-03-31T10:38:06.075Z,9.90
2018-03-31T10:40:33.046Z,9.90
2018-03-31T10:43:00.770Z,9.80
2018-03-31T10:45:27.751Z,9.80
2018-03-31T10:47:54.702Z,9.40
2018-03-31T10:50:21.701Z,9.40
2018-03-31T10:52:48.679Z,9.40
2018-03-31T10:55:15.623Z,9.50
2018-03-31T10:57:42.579Z,9.80
2018-03-31T11:00:09.610Z,10.20
2018-03-31T11:02:36.593Z,10.50
2018-03-31T11:05:03.564Z,10.40
2018-03-31T11:07:30.535Z,10.60
2018-03-31T11:09:58.271Z,10.60
2018-03-31T11:12:25.243Z,10.60
2018-03-31T11:14:52.195Z,10.50
2018-03-31T11:17:19.924Z,10.80
2018-03-31T11:19:46.877Z,10.80
2018-03-31T11:22:13.856Z,10.80
2018-03-31T11:24:40.813Z,11.00
2018-03-31T11:27:07.769Z,11.00
2018-03-31T11:29:35.533Z,11.00
2018-03-31T11:32:02.519Z,11.00
2018-03-31T11:34:29.481Z,11.10
2018-03-31T11:36:57.204Z,11.10
2018-03-31T11:39:24.160Z,11.10
2018-03-31T11:41:51.892Z,10.90
2018-03-31T11:44:18.886Z,10.90
2018-03-31T11:46:46.628Z,10.40
2018-03-31T11:49:13.588Z,10.40
2018-03-31T11:51:41.985Z,10.30
2018-03-31T11:54:09.734Z,10.30
2018-03-31T11:56:36.701Z,10.30
2018-03-31T11:59:03.670Z,10.20
2018-03-31T12:01:31.425Z,10.20
2018-03-31T12:03:58.365Z,10.20
2018-03-31T12:06:25.336Z,10.30
2018-03-31T12:08:53.079Z,10.10
2018-03-31T12:11:20.051Z,10.10
2018-03-31T12:13:47.784Z,10.00
2018-03-31T12:16:14.745Z,10.00
2018-03-31T12:18:41.721Z,10.10
2018-03-31T12:21:08.679Z,10.10
2018-03-31T12:23:36.447Z,10.10
2018-03-31T12:26:04.574Z,10.00
2018-03-31T12:28:31.525Z,10.00
2018-03-31T12:30:58.494Z,10.00
2018-03-31T12:33:25.476Z,10.20
2018-03-31T12:35:52.438Z,10.10
2018-03-31T12:38:20.163Z,10.10
2018-03-31T12:40:47.769Z,10.10
2018-03-31T12:43:15.514Z,10.10
2018-03-31T12:45:42.471Z,10.10
2018-03-31T12:48:09.444Z,10.20
2018-03-31T12:50:37.175Z,10.20
2018-03-31T12:53:04.147Z,10.20
2018-03-31T12:55:31.107Z,10.30
2018-03-31T12:57:58.867Z,10.00
2018-03-31T13:00:25.818Z,9.90
2018-03-31T13:02:53.560Z,10.00
2018-03-31T13:05:20.526Z,10.00
2018-03-31T13:07:47.500Z,10.00
2018-03-31T13:10:15.231Z,10.00
2018-03-31T13:12:42.215Z,10.00
2018-03-31T13:15:09.966Z,10.00
2018-03-31T13:17:36.951Z,10.00
2018-03-31T13:20:04.703Z,9.90
2018-03-31T13:22:31.712Z,9.90
2018-03-31T13:24:58.689Z,9.90
2018-03-31T13:27:25.645Z,10.00
2018-03-31T13:29:52.586Z,9.90
2018-03-31T13:32:19.613Z,10.10
2018-03-31T13:34:46.581Z,10.10
2018-03-31T13:37:13.567Z,10.10
2018-03-31T13:39:40.533Z,10.00
2018-03-31T13:42:08.282Z,10.10
2018-03-31T13:44:35.245Z,10.10
2018-03-31T13:47:02.992Z,10.00
2018-03-31T13:49:29.959Z,10.00
2018-03-31T13:51:56.919Z,10.10
2018-03-31T13:54:24.657Z,10.20
2018-03-31T13:56:51.618Z,10.20
2018-03-31T13:59:18.598Z,10.20
2018-03-31T14:01:46.322Z,10.30
2018-03-31T14:04:13.349Z,10.30
2018-03-31T14:06:41.033Z,10.30
2018-03-31T14:09:08.009Z,10.30
2018-03-31T14:11:34.972Z,10.30
2018-03-31T14:14:01.944Z,10.40
2018-03-31T14:16:28.899Z,10.30
2018-03-31T14:18:56.636Z,10.30
2018-03-31T14:21:23.591Z,10.30
2018-03-31T14:23:50.597Z,10.30
2018-03-31T14:26:17.597Z,10.30
2018-03-31T14:28:44.635Z,10.30
2018-03-31T14:31:11.534Z,10.40
2018-03-31T14:33:38.499Z,10.40
2018-03-31T14:36:05.509Z,10.50
2018-03-31T14:38:32.456Z,10.60
2018-03-31T14:40:59.430Z,10.60
2018-03-31T14:43:27.184Z,10.60
2018-03-31T14:45:54.144Z,10.60
2018-03-31T14:48:21.888Z,10.80
2018-03-31T14:50:48.867Z,10.80
2018-03-31T14:53:16.600Z,10.60
2018-03-31T14:55:43.573Z,10.50
2018-03-31T14:58:10.538Z,10.50
2018-03-31T15:00:38.269Z,10.30
2018-03-31T15:03:05.246Z,10.30
2018-03-31T15:05:32.232Z,10.30
2018-03-31T15:07:59.198Z,10.20
2018-03-31T15:10:26.265Z,10.30
2018-03-31T15:12:53.960Z,10.30
2018-03-31T15:15:20.933Z,10.30
2018-03-31T15:17:48.690Z,10.30
2018-03-31T15:20:15.690Z,10.30
2018-03-31T15:22:42.651Z,10.30
2018-03-31T15:25:09.608Z,10.30
2018-03-31T15:27:37.360Z,10.10
2018-03-31T15:30:04.337Z,10.10
2018-03-31T15:32:31.295Z,10.10
2018-03-31T15:34:58.267Z,10.20
2018-03-31T15:37:25.238Z,10.20
2018-03-31T15:39:53.000Z,10.30
2018-03-31T15:42:19.961Z,10.30
2018-03-31T15:44:47.682Z,10.40
2018-03-31T15:47:14.658Z,10.40
2018-03-31T15:49:41.614Z,10.20
2018-03-31T15:52:09.340Z,10.00
2018-03-31T15:54:36.312Z,10.00
2018-03-31T15:57:04.778Z,9.80
2018-03-31T15:59:31.764Z,9.80
2018-03-31T16:01:58.715Z,9.90
2018-03-31T16:04:25.691Z,10.10
2018-03-31T16:06:53.423Z,9.90
2018-03-31T16:09:20.386Z,9.90
2018-03-31T16:11:47.348Z,9.60
2018-03-31T16:14:14.293Z,9.60
2018-03-31T16:16:41.267Z,9.90
2018-03-31T16:19:08.990Z,10.20
2018-03-31T16:21:35.984Z,10.10
2018-03-31T16:24:03.708Z,10.00
2018-03-31T16:26:30.680Z,10.00
2018-03-31T16:28:57.660Z,10.10
2018-03-31T16:31:25.415Z,10.20
2018-03-31T16:33:53.146Z,10.20
2018-03-31T16:36:20.817Z,10.20
2018-03-31T16:38:47.775Z,10.30
2018-03-31T16:41:14.806Z,10.30
2018-03-31T16:43:42.587Z,10.10
2018-03-31T16:46:09.556Z,10.10
2018-03-31T16:48:36.507Z,9.60
2018-03-31T16:51:03.470Z,9.90
2018-03-31T16:53:30.433Z,10.00
2018-03-31T16:55:58.189Z,10.20
2018-03-31T16:58:25.219Z,10.20
2018-03-31T17:00:52.882Z,10.20
2018-03-31T17:03:19.832Z,10.10
2018-03-31T17:05:46.808Z,10.20
2018-03-31T17:08:13.744Z,10.20
2018-03-31T17:10:40.703Z,10.10
2018-03-31T17:13:07.669Z,10.20
2018-03-31T17:15:34.630Z,9.80
2018-03-31T17:18:02.364Z,9.90
2018-03-31T17:20:29.338Z,9.90
2018-03-31T17:22:56.300Z,10.10
2018-03-31T17:25:23.245Z,10.20
2018-03-31T17:27:50.223Z,10.00
2018-03-31T17:30:17.976Z,10.10
2018-03-31T17:32:45.724Z,10.10
2018-03-31T17:35:12.729Z,10.10
2018-03-31T17:37:39.683Z,10.10
2018-03-31T17:40:06.685Z,10.10
2018-03-31T17:42:33.635Z,9.80
2018-03-31T17:45:00.615Z,9.80
2018-03-31T17:47:27.563Z,9.70
2018-03-31T17:49:54.637Z,9.90
2018-03-31T17:52:21.614Z,9.80
2018-03-31T17:54:48.580Z,9.70
2018-03-31T17:57:16.465Z,9.60
2018-03-31T17:59:44.430Z,9.40
2018-03-31T18:02:11.398Z,9.50
2018-03-31T18:04:38.372Z,9.60
2018-03-31T18:07:06.087Z,9.30
2018-03-31T18:09:33.055Z,9.30
2018-03-31T18:12:00.028Z,9.30
2018-03-31T18:14:26.978Z,9.20
2018-03-31T18:16:53.943Z,9.00
2018-03-31T18:19:21.693Z,9.10
2018-03-31T18:21:48.693Z,9.10
2018-03-31T18:24:16.417Z,9.30
2018-03-31T18:26:43.438Z,9.30
2018-03-31T18:29:10.395Z,9.30
2018-03-31T18:31:37.395Z,9.50
2018-03-31T18:34:05.124Z,9.50
2018-03-31T18:36:32.109Z,9.50
2018-03-31T18:38:59.862Z,9.40
2018-03-31T18:41:28.304Z,9.10
2018-03-31T18:43:56.022Z,9.40
2018-03-31T18:46:23.734Z,9.50
2018-03-31T18:48:50.718Z,9.50
2018-03-31T18:51:17.696Z,9.50
2018-03-31T18:53:44.661Z,9.50
2018-03-31T18:56:11.647Z,9.50
2018-03-31T18:58:38.633Z,9.40
2018-03-31T19:01:05.641Z,9.50
2018-03-31T19:03:32.618Z,9.50
2018-03-31T19:05:59.597Z,9.50
2018-03-31T19:08:26.553Z,9.30
2018-03-31T19:10:53.567Z,9.30
2018-03-31T19:13:20.506Z,9.20
2018-03-31T19:15:48.674Z,9.20
2018-03-31T19:18:15.651Z,9.30
2018-03-31T19:20:42.625Z,9.20
2018-03-31T19:23:09.686Z,9.30
2018-03-31T19:25:36.655Z,9.30
2018-03-31T19:28:04.395Z,9.00
2018-03-31T19:30:36.995Z,9.00
2018-03-31T19:33:03.968Z,8.90
2018-03-31T19:35:37.771Z,8.90
2018-03-31T19:38:04.750Z,8.90
2018-03-31T19:40:31.717Z,9.00
2018-03-31T19:42:58.683Z,9.10
2018-03-31T19:45:25.638Z,9.00
2018-03-31T19:47:52.602Z,9.10
2018-03-31T19:50:19.553Z,9.20
2018-03-31T19:52:46.529Z,9.30
2018-03-31T19:55:14.246Z,9.30
2018-03-31T19:57:41.229Z,9.30
2018-03-31T20:00:08.955Z,9.30
2018-03-31T20:02:35.908Z,9.30
2018-03-31T20:05:02.875Z,9.30
2018-03-31T20:07:29.864Z,9.10
2018-03-31T20:09:59.021Z,8.80
2018-03-31T20:12:25.991Z,8.80
2018-03-31T20:14:52.955Z,8.60
2018-03-31T20:17:19.919Z,8.60
2018-03-31T20:19:47.696Z,8.40
2018-03-31T20:22:14.620Z,8.40
2018-03-31T20:24:41.592Z,8.30
2018-03-31T20:27:09.349Z,8.40
2018-03-31T20:29:36.306Z,8.40
2018-03-31T20:32:04.042Z,8.30
2018-03-31T20:34:31.015Z,8.20
2018-03-31T20:36:58.016Z,8.40
2018-03-31T20:39:24.980Z,8.30
2018-03-31T20:41:51.944Z,8.20
2018-03-31T20:44:18.907Z,8.30
2018-03-31T20:46:45.934Z,8.50
2018-03-31T20:49:13.656Z,8.70
2018-03-31T20:51:41.381Z,8.70
2018-03-31T20:54:08.364Z,8.70
2018-03-31T20:56:35.347Z,8.70
2018-03-31T20:59:02.286Z,8.50
2018-03-31T21:01:30.088Z,8.30
2018-03-31T21:03:57.071Z,8.30
2018-03-31T21:06:24.040Z,8.30
2018-03-31T21:08:51.015Z,8.20
2018-03-31T21:11:18.740Z,8.30
2018-03-31T21:13:45.686Z,8.30
2018-03-31T21:16:12.665Z,8.20
2018-03-31T21:18:39.621Z,8.40
2018-03-31T21:21:06.570Z,8.20
2018-03-31T21:23:34.309Z,8.30
2018-03-31T21:26:01.263Z,8.30
2018-03-31T21:28:28.228Z,8.20
2018-03-31T21:30:55.212Z,8.20
2018-03-31T21:33:23.464Z,7.80
2018-03-31T21:35:51.435Z,7.80
2018-03-31T21:38:18.403Z,7.80
2018-03-31T21:40:46.182Z,7.90
2018-03-31T21:43:13.899Z,8.10
2018-03-31T21:45:41.575Z,8.10
2018-03-31T21:48:08.559Z,8.30
2018-03-31T21:50:35.548Z,8.30
2018-03-31T21:53:02.502Z,8.50
2018-03-31T21:55:30.258Z,8.40
2018-03-31T21:57:57.206Z,8.40
2018-03-31T22:00:24.220Z,8.30
2018-03-31T22:02:51.199Z,8.20
2018-03-31T22:05:19.162Z,8.20
2018-03-31T22:07:46.891Z,8.20
2018-03-31T22:10:13.927Z,8.20
2018-03-31T22:12:40.913Z,8.20
2018-03-31T22:15:13.588Z,8.30
2018-03-31T22:17:40.548Z,8.40
2018-03-31T22:20:07.507Z,8.30
2018-03-31T22:22:34.479Z,8.30
2018-03-31T22:25:03.026Z,8.30
2018-03-31T22:27:30.004Z,8.40
2018-03-31T22:29:56.968Z,8.40
2018-03-31T22:32:24.693Z,8.40
2018-03-31T22:34:51.670Z,8.40
2018-03-31T22:37:18.626Z,8.40
2018-03-31T22:39:45.590Z,8.30
2018-03-31T22:42:13.312Z,8.30
2018-03-31T22:44:40.272Z,8.30
2018-03-31T22:47:07.222Z,8.30
2018-03-31T22:49:34.184Z,8.20
2018-03-31T22:52:01.152Z,8.20
2018-03-31T22:54:28.104Z,8.10
2018-03-31T22:56:55.058Z,8.20
2018-03-31T22:59:22.018Z,8.10
2018-03-31T23:01:49.751Z,8.10
2018-03-31T23:04:16.714Z,8.10
2018-03-31T23:06:43.688Z,8.10
2018-03-31T23:09:11.411Z,8.00
2018-03-31T23:11:38.428Z,8.00
2018-03-31T23:14:06.322Z,7.90
2018-03-31T23:16:33.264Z,7.90
2018-03-31T23:19:00.226Z,7.80
2018-03-31T23:21:27.189Z,7.80
2018-03-31T23:23:54.148Z,7.90
2018-03-31T23:26:21.117Z,7.90
2018-03-31T23:28:48.092Z,7.90
2018-03-31T23:31:15.842Z,7.80
2018-03-31T23:33:42.798Z,7.80
2018-03-31T23:36:09.743Z,7.90
2018-03-31T23:38:36.692Z,7.80
2018-03-31T23:41:03.648Z,7.70
2018-03-31T23:43:30.610Z,7.70
2018-03-31T23:45:58.344Z,7.70
2018-03-31T23:48:25.304Z,7.80
2018-03-31T23:50:52.257Z,7.70
2018-03-31T23:53:19.215Z,7.70
2018-03-31T23:55:46.191Z,7.70
2018-03-31T23:58:13.906Z,7.70
